aviador You're here:

CYHK Decoded Metar

GJOA HAVEN in NU, CANADA
Report Time2017-08-21 23:00:00
UTC Time2017-08-21 23:54:57
Flight Rules vfr VFR
Wind030° at 05 kt
W.Decomp.*RWY 31: 0.2 kt HW 5.0 kt RCW
W.Rank030° ranks 11
Current wind is below 030° avg. (10.9)
Visibility9999 m
Phenomena:N/A
Clouds:Scattered 250 Hf
Expected CloudBase > 2,400 ft AGL from Temp-Dew spread
CeilingNone
Temp14°C (ISA -1)
Dew Point08°C (67% RH)
AAT11.7°C
QNH1019 hPa
Density Alt10 ft
Elevation151 ft
Report Wrong Elevation
Raw Report
CYHK 212300Z 03005KT 15SM SCT250 14/08 A3008 RMK CS4 SLP191=

Extra information for CYHK:More info

Metar Taf Metar & Taf Last 4 Metars F.Rules Stats Wind Profile Meteogram Temp Stats Airport Information Weather charts Add Link Nearby VenuesMetar ALERT Operation Metar Decoded Social comments